Hulbert, Michigan
Current Conditions -  °F | °C
As of 1:15 AM on Sunday 21 Dec 2014 (Local Time) from KERY Reporting Station
Overcast Overcast  
Wind Chill: 19°   Ceiling: 1300
Heat Index: 26°   Visibility: 10mi
Dew Point: 23°   Wind: 6mph
Humidity: 89%   Direction: 150°SSE
Pressure: 30.21"   Gusts: NA
Location:  46.35°N, 85.15°W
Report Text: KERY 210615Z AUTO 15005KT 10SM OVC013 M03/M05 A3021 RMK AO2 T10351050
Loading
Personal Weather Stations






























Interactive Weather Map New forecast layout! Learn more

10-Day Weather Forecast

Advertisements
Track Severe Weather on mobile